Terminal Aerodrome Forecast
Issued by NWS

Home | Current Version | Previous Version | Text Only | Print | Product List | Glossary On
Versions: 1 2 3 4 5 6 7 8 9 10 11 12 13 14 15 16 17 18 19
162
FTUS43 KEAX 072320
TAFMKC
TAF
KMKC 072320Z 0800/0824 30012G22KT P6SM BKN080
     FM080700 31015G25KT 5SM -SHSN OVC020
     FM081600 33020G30KT P6SM OVC035=

USA.gov is the U.S. government's official web portal to all federal, state and local government web resources and services.